createdAt,value
2023-03-17T00:39:32.889Z,0.51
2023-03-17T00:41:32.941Z,0.51
2023-03-17T00:42:32.934Z,0.51
2023-03-17T00:43:32.932Z,0.51
2023-03-17T00:44:32.934Z,0.50
2023-03-17T00:45:32.969Z,0.51
2023-03-17T00:46:32.980Z,0.51
2023-03-17T00:47:32.981Z,0.51
2023-03-17T00:48:32.979Z,0.50
2023-03-17T00:49:32.980Z,0.51
2023-03-17T00:50:32.993Z,0.51
2023-03-17T00:51:32.977Z,0.51
2023-03-17T00:52:33.029Z,0.51
2023-03-17T00:53:33.020Z,0.51
2023-03-17T00:54:33.012Z,0.51
2023-03-17T00:55:33.013Z,0.51
2023-03-17T00:56:33.025Z,0.50
2023-03-17T00:57:33.046Z,0.51
2023-03-17T00:59:33.056Z,0.51
2023-03-17T01:00:33.276Z,0.51
2023-03-17T01:01:33.061Z,0.51
2023-03-17T01:02:33.078Z,0.51
2023-03-17T01:03:33.129Z,0.50
2023-03-17T01:04:33.074Z,0.51
2023-03-17T01:05:33.081Z,0.51
2023-03-17T01:06:33.089Z,0.51
2023-03-17T01:07:33.090Z,0.50
2023-03-17T01:08:33.095Z,0.51
2023-03-17T01:09:33.093Z,0.50
2023-03-17T01:10:33.097Z,0.51
2023-03-17T01:11:33.093Z,0.50
2023-03-17T01:12:33.121Z,0.51
2023-03-17T01:13:33.113Z,0.51
2023-03-17T01:14:33.115Z,0.50
2023-03-17T01:15:33.118Z,0.51
2023-03-17T01:16:33.143Z,0.50
2023-03-17T01:17:33.158Z,0.51
2023-03-17T01:18:33.207Z,0.51
2023-03-17T01:19:33.145Z,0.50
2023-03-17T01:20:33.158Z,0.51
2023-03-17T01:21:33.143Z,0.51
2023-03-17T01:22:33.162Z,0.51
2023-03-17T01:23:33.165Z,0.51
2023-03-17T01:24:33.169Z,0.50
2023-03-17T01:25:33.164Z,0.51
2023-03-17T01:26:33.175Z,0.51
2023-03-17T01:27:33.155Z,0.51
2023-03-17T01:28:33.177Z,0.50
2023-03-17T01:29:33.179Z,0.51
2023-03-17T01:30:33.190Z,0.51
2023-03-17T01:31:33.238Z,0.50
2023-03-17T01:32:33.187Z,0.50
2023-03-17T01:33:33.194Z,0.50
2023-03-17T01:34:33.195Z,0.51
2023-03-17T01:35:33.227Z,0.51
2023-03-17T01:36:33.213Z,0.50
2023-03-17T01:37:33.217Z,0.51
2023-03-17T01:38:33.329Z,0.50
2023-03-17T01:39:33.224Z,0.51
2023-03-17T01:40:33.245Z,0.51
2023-03-17T01:41:33.210Z,0.51
2023-03-17T01:42:33.208Z,0.50
2023-03-17T01:43:33.205Z,0.52
2023-03-17T01:44:33.209Z,0.51
2023-03-17T01:45:33.297Z,0.51
2023-03-17T01:46:33.208Z,0.51
2023-03-17T01:47:33.207Z,0.51
2023-03-17T01:48:33.218Z,0.51
2023-03-17T01:49:33.227Z,0.50
2023-03-17T01:50:33.225Z,0.50
2023-03-17T01:51:33.234Z,0.51
2023-03-17T01:52:33.217Z,0.51
2023-03-17T01:53:33.214Z,0.52
2023-03-17T01:54:33.206Z,0.51
2023-03-17T01:55:33.213Z,0.51
2023-03-17T01:56:33.213Z,0.51
2023-03-17T01:57:33.219Z,0.51
2023-03-17T01:58:33.219Z,0.51
2023-03-17T01:59:33.250Z,0.51
2023-03-17T02:00:33.206Z,0.51
2023-03-17T02:01:33.208Z,0.51
2023-03-17T02:02:33.208Z,0.50
2023-03-17T02:03:33.620Z,0.51
2023-03-17T02:04:33.235Z,0.51
2023-03-17T02:05:33.234Z,0.51
2023-03-17T02:06:33.215Z,0.51
2023-03-17T02:07:33.239Z,0.50
2023-03-17T02:08:33.246Z,0.51
2023-03-17T02:09:33.231Z,0.50
2023-03-17T02:10:33.292Z,0.50
2023-03-17T02:11:33.242Z,0.50
2023-03-17T02:12:33.254Z,0.51
2023-03-17T02:13:33.261Z,0.50
2023-03-17T02:14:33.255Z,0.51
2023-03-17T02:15:33.295Z,0.51
2023-03-17T02:16:33.288Z,0.50
2023-03-17T02:17:33.282Z,0.51
2023-03-17T02:18:33.286Z,0.51
2023-03-17T02:19:33.294Z,0.50
2023-03-17T02:20:33.292Z,0.51
2023-03-17T02:21:33.297Z,0.50
2023-03-17T02:22:33.321Z,0.51
2023-03-17T02:23:33.328Z,0.50
2023-03-17T02:24:33.305Z,0.51
2023-03-17T02:25:33.307Z,0.51
2023-03-17T02:26:33.325Z,0.51
2023-03-17T02:27:33.336Z,0.51
2023-03-17T02:28:33.370Z,0.51
2023-03-17T02:29:33.351Z,0.51
2023-03-17T02:30:33.520Z,0.50
2023-03-17T02:31:33.352Z,0.50
2023-03-17T02:32:33.383Z,0.50
2023-03-17T02:33:33.399Z,0.51
2023-03-17T02:34:33.380Z,0.50
2023-03-17T02:35:33.422Z,0.50
2023-03-17T02:36:33.438Z,0.51
2023-03-17T02:37:33.418Z,0.50
2023-03-17T02:38:33.406Z,0.51
2023-03-17T02:39:33.426Z,0.51
2023-03-17T02:40:33.427Z,0.51
2023-03-17T02:41:33.439Z,0.51
2023-03-17T02:42:33.453Z,0.51
2023-03-17T02:43:33.462Z,0.51
2023-03-17T02:44:33.455Z,0.50
2023-03-17T02:45:33.472Z,0.51
2023-03-17T02:46:33.535Z,0.51
2023-03-17T02:47:33.487Z,0.50
2023-03-17T02:48:33.476Z,0.50
2023-03-17T02:49:33.492Z,0.50
2023-03-17T02:50:33.513Z,0.51
2023-03-17T02:51:33.500Z,0.51
2023-03-17T02:52:33.505Z,0.51
2023-03-17T02:53:33.517Z,0.51
2023-03-17T02:54:33.532Z,0.51
2023-03-17T02:55:33.534Z,0.50
2023-03-17T02:56:33.529Z,0.51
2023-03-17T02:57:33.532Z,0.50
2023-03-17T02:58:33.537Z,0.51
2023-03-17T02:59:33.544Z,0.51
2023-03-17T03:00:33.541Z,0.50
2023-03-17T03:01:33.614Z,0.51
2023-03-17T03:02:33.659Z,0.51
2023-03-17T03:03:33.565Z,0.50
2023-03-17T03:04:33.579Z,0.50
2023-03-17T03:05:33.589Z,0.51
2023-03-17T03:06:33.596Z,0.50
2023-03-17T03:07:33.588Z,0.51
2023-03-17T03:08:33.608Z,0.51
2023-03-17T03:09:33.623Z,0.51
2023-03-17T03:10:33.595Z,0.51
2023-03-17T03:11:33.609Z,0.51
2023-03-17T03:12:33.634Z,0.51
2023-03-17T03:13:33.626Z,0.51
2023-03-17T03:14:33.636Z,0.51
2023-03-17T03:15:33.711Z,0.50
2023-03-17T03:16:33.643Z,0.50
2023-03-17T03:17:33.659Z,0.52
2023-03-17T03:18:33.679Z,0.51
2023-03-17T03:19:33.678Z,0.50
2023-03-17T03:20:33.679Z,0.51
2023-03-17T03:21:33.679Z,0.51
2023-03-17T03:22:33.716Z,0.51
2023-03-17T03:23:33.699Z,0.51
2023-03-17T03:24:33.697Z,0.51
2023-03-17T03:25:33.708Z,0.51
2023-03-17T03:26:33.746Z,0.50
2023-03-17T03:27:33.729Z,0.50
2023-03-17T03:28:33.720Z,0.52
2023-03-17T03:29:33.738Z,0.51
2023-03-17T03:30:33.730Z,0.51
2023-03-17T03:31:33.754Z,0.51
2023-03-17T03:32:33.794Z,0.52
2023-03-17T03:33:33.757Z,0.51
2023-03-17T03:34:33.773Z,0.51
2023-03-17T03:35:33.782Z,0.50
2023-03-17T03:36:33.752Z,0.51
2023-03-17T03:37:33.755Z,0.51
2023-03-17T03:38:33.758Z,0.51
2023-03-17T03:40:33.760Z,0.50
2023-03-17T03:41:33.783Z,0.52
2023-03-17T03:42:33.772Z,0.51
2023-03-17T07:09:35.067Z,4.46
2023-03-17T07:10:35.087Z,4.83
2023-03-17T07:11:35.061Z,5.21
2023-03-17T07:12:35.126Z,5.25
2023-03-17T07:13:35.085Z,3.45
2023-03-17T07:14:35.101Z,1.33
2023-03-17T07:15:35.231Z,0.61
2023-03-17T07:16:35.798Z,0.34
2023-03-17T07:17:35.206Z,0.34
2023-03-17T07:18:35.230Z,0.34
2023-03-17T07:19:35.348Z,0.34
2023-03-17T07:20:35.417Z,0.34
2023-03-17T07:21:35.392Z,0.34
2023-03-17T07:22:35.469Z,0.34
2023-03-17T07:23:35.525Z,0.34
2023-03-17T07:24:35.603Z,0.34
2023-03-17T07:25:35.665Z,0.34
2023-03-17T07:26:35.788Z,0.34
2023-03-17T07:27:35.741Z,0.34
2023-03-17T07:28:35.829Z,0.34
2023-03-17T07:29:35.887Z,0.34
2023-03-17T07:30:36.100Z,0.37
2023-03-17T07:31:36.619Z,0.52
2023-03-17T07:32:36.070Z,0.69
2023-03-17T07:33:36.294Z,0.86
2023-03-17T07:34:36.045Z,0.90
2023-03-17T07:35:36.139Z,1.08
2023-03-17T07:36:36.127Z,1.15
2023-03-17T07:37:36.310Z,1.39
2023-03-17T07:38:36.295Z,1.52
2023-03-17T07:39:36.448Z,1.77
2023-03-17T07:40:36.291Z,2.03
2023-03-17T07:41:36.387Z,2.33
2023-03-17T07:42:36.353Z,2.40
2023-03-17T07:43:36.411Z,2.82
2023-03-17T07:44:36.399Z,2.82
2023-03-17T07:45:36.368Z,3.41
2023-03-17T07:46:36.467Z,3.93
2023-03-17T07:47:36.415Z,4.73
2023-03-17T07:48:36.349Z,6.92
2023-03-17T07:49:41.671Z,7.93
2023-03-17T07:50:37.408Z,7.36
2023-03-17T07:51:36.413Z,8.02
2023-03-17T07:52:36.543Z,8.04
2023-03-17T07:53:37.309Z,6.73
2023-03-17T07:54:36.481Z,4.29
2023-03-17T07:55:36.800Z,4.28
2023-03-17T07:56:36.494Z,4.52
2023-03-17T07:57:36.635Z,4.44
2023-03-17T07:58:36.567Z,4.77
2023-03-17T07:59:36.566Z,4.55
2023-03-17T08:00:36.756Z,5.76
2023-03-17T08:01:36.669Z,8.07
2023-03-17T08:02:36.865Z,7.36
2023-03-17T08:03:38.108Z,7.21
2023-03-17T08:04:36.860Z,8.89
2023-03-17T08:05:36.871Z,8.48
2023-03-17T08:06:36.913Z,8.38
2023-03-17T08:07:36.883Z,8.40
2023-03-17T08:08:36.916Z,8.28
2023-03-17T08:09:38.806Z,11.18
2023-03-17T08:10:36.962Z,9.91
2023-03-17T08:11:36.964Z,9.60
2023-03-17T08:12:37.035Z,8.63
2023-03-17T08:13:36.977Z,9.80
2023-03-17T08:14:37.034Z,9.08
2023-03-17T08:15:37.009Z,8.40
2023-03-17T08:16:37.085Z,7.77
2023-03-17T08:17:37.106Z,7.70
2023-03-17T08:18:37.168Z,6.79
2023-03-17T08:19:37.268Z,7.21
2023-03-17T08:20:37.358Z,7.44
2023-03-17T08:21:37.423Z,7.19
2023-03-17T08:22:37.456Z,7.27
2023-03-17T08:23:37.592Z,7.29
2023-03-17T08:24:37.613Z,7.96
2023-03-17T08:25:37.713Z,7.95
2023-03-17T08:26:37.842Z,9.64
2023-03-17T08:27:37.845Z,8.92
2023-03-17T08:28:37.907Z,9.18
2023-03-17T08:29:38.033Z,9.94
2023-03-17T08:30:38.404Z,8.70
2023-03-17T08:31:38.126Z,9.71
2023-03-17T08:32:38.151Z,9.52
2023-03-17T08:33:38.130Z,12.57
2023-03-17T08:34:38.137Z,14.64
2023-03-17T08:35:38.150Z,17.09
2023-03-17T08:36:38.308Z,17.00
2023-03-17T08:37:38.303Z,16.96
2023-03-17T08:38:38.265Z,19.07
2023-03-17T08:39:38.341Z,22.09
2023-03-17T08:40:38.411Z,21.63
2023-03-17T08:41:38.548Z,22.48
2023-03-17T08:42:38.571Z,20.61
2023-03-17T08:43:38.622Z,19.35
2023-03-17T08:44:38.620Z,19.17
2023-03-17T08:45:38.628Z,17.54
2023-03-17T08:46:39.306Z,11.52
2023-03-17T08:47:38.731Z,14.07
2023-03-17T08:48:38.673Z,13.86
2023-03-17T08:49:38.700Z,15.13
2023-03-17T08:50:38.741Z,14.10
2023-03-17T08:51:38.696Z,11.52
2023-03-17T08:52:38.705Z,8.86
2023-03-17T08:53:38.736Z,9.78
2023-03-17T08:54:38.735Z,10.71
2023-03-17T08:55:38.746Z,11.76
2023-03-17T08:56:38.775Z,6.17
2023-03-17T08:57:38.779Z,6.91
2023-03-17T08:58:38.778Z,6.20
2023-03-17T08:59:38.929Z,6.40
2023-03-17T09:00:38.806Z,7.56
2023-03-17T09:01:38.971Z,9.70
2023-03-17T09:02:38.879Z,10.28
2023-03-17T09:03:38.863Z,11.07
2023-03-17T09:04:40.088Z,8.42
2023-03-17T09:05:38.846Z,6.32
2023-03-17T09:06:42.306Z,5.07
2023-03-17T09:07:39.996Z,5.11
2023-03-17T09:08:38.969Z,5.17
2023-03-17T09:09:38.870Z,4.72
2023-03-17T09:10:39.048Z,4.05
2023-03-17T09:11:38.876Z,3.38
2023-03-17T09:12:38.941Z,4.54
2023-03-17T09:13:38.910Z,1.88
2023-03-17T09:14:43.890Z,1.38
2023-03-17T09:15:40.215Z,0.89
2023-03-17T09:16:38.987Z,1.07
2023-03-17T09:17:39.023Z,1.15
2023-03-17T09:18:39.082Z,1.42
2023-03-17T09:19:39.067Z,2.17
2023-03-17T09:20:39.067Z,2.53
2023-03-17T09:21:39.234Z,3.74
2023-03-17T09:22:39.100Z,2.64
2023-03-17T09:23:39.134Z,3.19
2023-03-17T09:24:39.163Z,4.38
2023-03-17T09:25:39.169Z,4.20
2023-03-17T09:26:39.202Z,5.70
2023-03-17T09:27:39.172Z,6.74
2023-03-17T09:28:39.212Z,7.62
2023-03-17T09:29:39.210Z,7.58
2023-03-17T09:30:39.237Z,5.36
2023-03-17T09:31:39.342Z,5.63
2023-03-17T09:32:39.301Z,7.89
2023-03-17T09:33:39.264Z,9.27
2023-03-17T09:34:39.290Z,6.67
2023-03-17T09:35:39.295Z,8.41
2023-03-17T09:36:39.292Z,8.68
2023-03-17T09:37:39.288Z,10.01
2023-03-17T09:38:39.815Z,9.19
2023-03-17T09:39:39.290Z,5.18
2023-03-17T09:40:39.297Z,4.15
2023-03-17T09:41:39.333Z,3.53
2023-03-17T09:42:39.335Z,2.71
2023-03-17T09:43:39.343Z,2.76
2023-03-17T09:44:39.399Z,3.26
2023-03-17T09:45:41.660Z,2.31
2023-03-17T09:46:39.428Z,2.15
2023-03-17T09:47:41.582Z,2.43
2023-03-17T09:48:39.395Z,2.37
2023-03-17T09:49:39.445Z,2.69
2023-03-17T09:50:39.411Z,3.49
2023-03-17T09:51:39.411Z,5.16
2023-03-17T09:52:39.420Z,4.36
2023-03-17T09:53:39.463Z,4.52
2023-03-17T09:54:39.450Z,3.90
2023-03-17T09:55:40.227Z,4.93
2023-03-17T09:56:39.476Z,5.59
2023-03-17T09:57:40.428Z,5.99
2023-03-17T09:58:39.514Z,7.22
2023-03-17T09:59:39.518Z,3.55
2023-03-17T10:00:39.531Z,5.27
2023-03-17T10:01:39.604Z,5.40
2023-03-17T10:02:39.532Z,5.03
2023-03-17T10:03:39.536Z,6.71
2023-03-17T10:04:40.347Z,8.29
2023-03-17T10:05:39.607Z,9.90
2023-03-17T10:06:39.543Z,9.61
2023-03-17T10:07:39.603Z,9.53
2023-03-17T10:08:39.560Z,10.75
2023-03-17T10:09:39.561Z,11.74
2023-03-17T10:10:39.553Z,12.22
2023-03-17T10:11:39.567Z,13.20
2023-03-17T10:12:39.654Z,9.07
2023-03-17T10:13:40.322Z,11.17
2023-03-17T10:14:39.548Z,10.56
2023-03-17T10:15:39.595Z,5.85
2023-03-17T10:16:39.606Z,5.81
2023-03-17T10:17:39.610Z,4.05
2023-03-17T10:18:39.623Z,4.61
2023-03-17T10:19:39.616Z,4.94
2023-03-17T10:20:39.620Z,4.72
2023-03-17T10:21:39.608Z,4.86
2023-03-17T10:22:39.649Z,2.08
2023-03-17T10:23:39.626Z,2.61
2023-03-17T10:25:39.667Z,5.06
2023-03-17T10:26:39.629Z,5.11
2023-03-17T10:27:39.690Z,5.43
2023-03-17T10:28:39.635Z,6.27
2023-03-17T10:29:39.625Z,7.88
2023-03-17T10:30:40.330Z,10.88
2023-03-17T10:31:40.337Z,13.01
2023-03-17T10:32:39.668Z,13.06
2023-03-17T10:33:39.616Z,13.38
2023-03-17T10:34:39.627Z,13.83
2023-03-17T10:35:39.755Z,14.05
2023-03-17T10:36:39.687Z,15.50
2023-03-17T10:37:40.556Z,16.58
2023-03-17T10:38:39.602Z,17.22
2023-03-17T10:39:39.587Z,17.88
2023-03-17T10:40:39.578Z,20.57
2023-03-17T10:41:39.609Z,20.19
2023-03-17T10:42:39.593Z,18.97
2023-03-17T10:43:39.566Z,20.54
2023-03-17T10:44:39.617Z,21.48
2023-03-17T10:45:42.167Z,23.76
2023-03-17T10:46:39.628Z,23.81
2023-03-17T10:47:39.561Z,24.28
2023-03-17T10:48:39.548Z,25.53
2023-03-17T10:49:39.564Z,28.92
2023-03-17T10:50:39.566Z,34.82
2023-03-17T10:51:39.592Z,37.56
2023-03-17T10:52:39.582Z,40.74
2023-03-17T10:53:39.568Z,40.85
2023-03-17T10:54:39.534Z,41.61
2023-03-17T10:55:39.497Z,44.06
2023-03-17T10:56:39.535Z,48.53
2023-03-17T10:57:39.501Z,52.63
2023-03-17T10:58:39.509Z,55.35
2023-03-17T10:59:42.102Z,59.29
2023-03-17T11:00:39.527Z,59.48
2023-03-17T11:01:39.484Z,61.12
2023-03-17T11:02:39.492Z,64.06
2023-03-17T11:03:39.520Z,70.64
2023-03-17T11:04:40.343Z,85.36
2023-03-17T11:05:40.117Z,92.17
2023-03-17T11:06:39.453Z,99.12
2023-03-17T11:07:39.498Z,104.70
2023-03-17T11:08:39.463Z,110.45
2023-03-17T11:09:40.456Z,113.77
2023-03-17T11:10:39.409Z,114.59
2023-03-17T11:11:39.394Z,118.73
2023-03-17T11:12:39.432Z,119.12
2023-03-17T11:13:39.501Z,120.33
2023-03-17T11:14:39.489Z,124.22
2023-03-17T11:15:39.379Z,119.70
2023-03-17T11:16:39.395Z,123.44
2023-03-17T11:17:39.372Z,129.05
2023-03-17T11:18:39.334Z,136.12
2023-03-17T11:19:39.298Z,145.85
2023-03-17T11:20:39.309Z,144.07
2023-03-17T11:21:39.340Z,148.51
2023-03-17T11:22:39.251Z,154.57
2023-03-17T11:23:39.275Z,158.17
2023-03-17T11:24:39.359Z,164.25
2023-03-17T11:25:39.261Z,128.96
2023-03-17T11:26:39.276Z,148.24
2023-03-17T11:27:39.255Z,161.56
2023-03-17T11:28:39.243Z,165.88
2023-03-17T11:29:39.226Z,171.49
2023-03-17T11:30:39.228Z,171.53
2023-03-17T11:31:39.380Z,171.38
2023-03-17T11:32:39.242Z,167.79
2023-03-17T11:33:39.202Z,155.46
2023-03-17T11:34:39.227Z,149.06
2023-03-17T11:35:39.216Z,142.30
2023-03-17T11:36:39.155Z,137.09
2023-03-17T11:37:39.169Z,117.80
2023-03-17T11:38:39.340Z,59.97
2023-03-17T11:39:39.164Z,54.44
2023-03-17T11:40:39.131Z,54.30
2023-03-17T11:41:39.097Z,44.48
2023-03-17T11:42:39.106Z,48.98
2023-03-17T11:43:39.131Z,51.45
2023-03-17T11:44:39.109Z,51.16
2023-03-17T11:45:39.121Z,51.25
2023-03-17T11:46:39.068Z,51.71
2023-03-17T11:47:39.111Z,53.21
2023-03-17T11:48:39.072Z,57.67
2023-03-17T11:49:39.077Z,63.59
2023-03-17T11:50:39.049Z,65.42
2023-03-17T11:51:39.012Z,66.42
2023-03-17T11:52:39.041Z,66.20
2023-03-17T11:53:39.423Z,68.33
2023-03-17T11:54:38.989Z,64.94
2023-03-17T11:55:38.979Z,70.29
2023-03-17T11:56:38.911Z,68.48
2023-03-17T11:57:38.926Z,69.40
2023-03-17T11:58:38.906Z,67.38
2023-03-17T11:59:38.916Z,63.68
2023-03-17T12:00:38.881Z,63.82
2023-03-17T12:01:38.873Z,64.25
2023-03-17T12:02:38.819Z,65.87
2023-03-17T12:03:38.930Z,73.77
2023-03-17T12:04:39.418Z,96.27
2023-03-17T12:05:38.825Z,101.38
2023-03-17T12:06:38.805Z,110.04
2023-03-17T12:07:38.800Z,112.51
2023-03-17T12:08:38.770Z,117.84
2023-03-17T12:09:38.800Z,117.73
2023-03-17T12:10:38.723Z,117.92
2023-03-17T12:11:38.733Z,118.18
2023-03-17T12:12:38.751Z,119.60
2023-03-17T12:13:38.724Z,122.44
2023-03-17T12:14:38.725Z,126.85
2023-03-17T12:15:38.761Z,136.54
2023-03-17T12:16:38.736Z,135.01
2023-03-17T12:17:38.639Z,133.22
2023-03-17T12:18:38.680Z,122.94
2023-03-17T12:19:38.608Z,127.10
2023-03-17T12:20:38.643Z,135.02
2023-03-17T12:21:38.617Z,141.64
2023-03-17T12:22:38.588Z,128.94
2023-03-17T12:23:38.582Z,123.26
2023-03-17T12:24:38.552Z,113.03
2023-03-17T12:25:38.580Z,102.16
2023-03-17T12:26:38.551Z,108.93
2023-03-17T12:27:38.552Z,101.68
2023-03-17T12:28:38.541Z,103.73
2023-03-17T12:29:38.458Z,101.18
2023-03-17T12:30:38.461Z,107.72
2023-03-17T12:31:38.432Z,116.59
2023-03-17T12:32:38.452Z,135.58
2023-03-17T12:33:38.427Z,151.20
2023-03-17T12:34:38.396Z,160.27
2023-03-17T12:35:38.375Z,165.56
2023-03-17T12:36:38.360Z,172.09
2023-03-17T12:37:39.305Z,185.42
2023-03-17T12:38:38.309Z,187.21
2023-03-17T12:39:38.336Z,192.23
2023-03-17T12:40:38.262Z,197.41
2023-03-17T12:41:38.240Z,198.29
2023-03-17T12:42:38.224Z,201.18
2023-03-17T12:43:38.197Z,207.04
2023-03-17T12:44:38.171Z,206.90
2023-03-17T12:45:38.190Z,213.09
2023-03-17T12:46:38.240Z,215.02
2023-03-17T12:47:38.105Z,208.52
2023-03-17T12:48:38.071Z,204.22
2023-03-17T12:49:38.072Z,208.29
2023-03-17T12:50:38.034Z,211.23
2023-03-17T12:51:38.654Z,211.90
2023-03-17T12:52:38.009Z,209.95
2023-03-17T12:53:38.016Z,210.25
2023-03-17T12:54:38.086Z,211.68
2023-03-17T12:55:37.949Z,213.38
2023-03-17T12:56:37.982Z,215.01
2023-03-17T12:57:37.905Z,216.55
2023-03-17T12:58:37.915Z,211.72
2023-03-17T12:59:37.881Z,216.03
2023-03-17T13:00:37.883Z,216.10
2023-03-17T13:01:37.883Z,214.07
2023-03-17T13:02:37.813Z,217.84
2023-03-17T13:03:37.880Z,217.68
2023-03-17T13:04:38.431Z,210.28
2023-03-17T13:05:37.753Z,212.81
2023-03-17T13:06:37.718Z,211.01
2023-03-17T13:07:37.741Z,211.37
2023-03-17T13:08:37.694Z,212.54
2023-03-17T13:09:37.700Z,213.72
2023-03-17T13:10:37.682Z,215.73
2023-03-17T13:11:37.664Z,217.84
2023-03-17T13:12:37.675Z,215.56
2023-03-17T13:13:37.640Z,212.10
2023-03-17T13:14:37.609Z,211.92
2023-03-17T13:15:37.585Z,209.46
2023-03-17T13:16:37.620Z,208.39
2023-03-17T13:17:37.616Z,206.36
2023-03-17T13:18:37.567Z,211.53
2023-03-17T13:19:37.536Z,208.92
2023-03-17T13:20:37.504Z,206.03
2023-03-17T13:21:37.479Z,204.33
2023-03-17T13:22:37.439Z,200.50
2023-03-17T13:23:37.464Z,202.03
2023-03-17T13:24:37.444Z,203.67
2023-03-17T13:25:37.415Z,198.39
2023-03-17T13:26:37.412Z,199.24
2023-03-17T13:27:37.383Z,200.50
2023-03-17T13:28:37.352Z,196.67
2023-03-17T13:29:37.355Z,200.84
2023-03-17T13:30:37.316Z,194.78
2023-03-17T13:31:37.401Z,187.34
2023-03-17T13:32:37.351Z,189.92
2023-03-17T13:33:37.252Z,190.36
2023-03-17T13:34:37.265Z,188.18
2023-03-17T13:35:37.253Z,185.67
2023-03-17T13:36:37.190Z,180.23
2023-03-17T13:37:37.181Z,179.29
2023-03-17T13:38:37.182Z,179.12
2023-03-17T13:39:37.123Z,179.19
2023-03-17T13:40:37.104Z,177.35
2023-03-17T13:41:37.092Z,176.54
2023-03-17T13:42:37.109Z,173.91
2023-03-17T13:43:37.066Z,170.99
2023-03-17T13:44:37.047Z,172.81
2023-03-17T13:45:37.013Z,171.56
2023-03-17T13:46:37.030Z,169.60
2023-03-17T13:47:36.966Z,169.11
2023-03-17T13:48:37.009Z,169.17
2023-03-17T13:49:37.006Z,161.41
2023-03-17T13:50:36.939Z,168.20
2023-03-17T13:51:37.675Z,166.34
2023-03-17T13:52:37.427Z,165.57
2023-03-17T13:53:36.882Z,162.95
2023-03-17T13:54:36.842Z,159.74
2023-03-17T13:55:36.911Z,159.92
2023-03-17T13:56:36.810Z,159.95
2023-03-17T13:57:36.790Z,160.23
2023-03-17T13:58:36.782Z,160.04
2023-03-17T13:59:36.761Z,157.33
2023-03-17T14:00:36.782Z,161.33
2023-03-17T14:01:36.721Z,152.61
2023-03-17T14:02:36.699Z,155.76
2023-03-17T14:03:36.786Z,153.93
2023-03-17T14:04:36.706Z,154.43
2023-03-17T14:05:36.658Z,149.37
2023-03-17T14:06:36.628Z,146.89
2023-03-17T14:07:36.640Z,147.14
2023-03-17T14:08:36.594Z,147.45
2023-03-17T14:09:36.638Z,148.66
2023-03-17T14:10:36.609Z,149.90
2023-03-17T14:11:36.582Z,149.63
2023-03-17T14:12:36.543Z,147.13
2023-03-17T14:13:36.568Z,147.41
2023-03-17T14:14:36.568Z,148.43
2023-03-17T14:15:36.984Z,145.36
2023-03-17T14:16:36.560Z,148.46
2023-03-17T14:17:36.515Z,146.15
2023-03-17T14:18:36.571Z,146.30
2023-03-17T14:19:36.510Z,146.45
2023-03-17T14:20:36.587Z,147.30
2023-03-17T14:21:36.525Z,144.62
2023-03-17T14:22:36.480Z,142.72
2023-03-17T14:23:36.527Z,141.39
2023-03-17T14:24:36.930Z,139.96
2023-03-17T14:25:36.437Z,141.79
2023-03-17T14:26:36.357Z,142.75
2023-03-17T14:27:36.346Z,138.90
2023-03-17T14:28:36.346Z,138.93
2023-03-17T14:29:36.255Z,139.12
2023-03-17T14:30:36.268Z,135.59
2023-03-17T14:31:36.281Z,134.09
2023-03-17T14:32:36.252Z,133.55
2023-03-17T14:33:36.201Z,129.66
2023-03-17T14:34:36.244Z,135.03
2023-03-17T14:35:36.387Z,131.41
2023-03-17T14:36:36.979Z,126.85
2023-03-17T14:37:36.921Z,129.89
2023-03-17T14:38:36.161Z,130.42
2023-03-17T14:39:36.918Z,130.44
2023-03-17T14:40:36.174Z,129.42
2023-03-17T14:41:36.192Z,129.28
2023-03-17T14:42:36.322Z,124.36
2023-03-17T14:43:36.216Z,126.28
2023-03-17T14:44:36.207Z,125.08
2023-03-17T14:45:36.262Z,123.17
2023-03-17T14:46:36.151Z,122.54
2023-03-17T14:47:36.189Z,121.32
2023-03-17T14:48:35.990Z,122.59
2023-03-17T14:49:35.984Z,122.66
2023-03-17T14:50:35.951Z,119.19
2023-03-17T14:51:36.010Z,117.86
2023-03-17T14:52:35.948Z,116.22
2023-03-17T14:53:35.950Z,118.49
2023-03-17T14:54:35.924Z,116.83
2023-03-17T14:55:35.911Z,114.80
2023-03-17T14:56:35.922Z,115.71
2023-03-17T14:57:35.889Z,114.03
2023-03-17T14:58:35.862Z,114.25
2023-03-17T14:59:35.880Z,114.45
2023-03-17T15:00:35.846Z,112.23
2023-03-17T15:01:35.883Z,113.42
2023-03-17T15:02:35.914Z,109.30
2023-03-17T15:03:35.796Z,109.11
2023-03-17T15:04:35.807Z,108.13
2023-03-17T15:05:35.778Z,109.93
2023-03-17T15:06:37.455Z,103.88
2023-03-17T15:07:35.763Z,104.11
2023-03-17T15:08:36.464Z,104.88
2023-03-17T15:09:35.720Z,105.25
2023-03-17T15:10:35.710Z,106.58
2023-03-17T15:11:35.703Z,106.79
2023-03-17T15:12:35.646Z,106.37
2023-03-17T15:13:35.649Z,105.63
2023-03-17T15:14:35.701Z,102.89
2023-03-17T15:15:35.621Z,105.18
2023-03-17T15:16:35.617Z,105.25
2023-03-17T15:17:35.585Z,103.06
2023-03-17T15:18:35.570Z,105.30
2023-03-17T15:19:35.591Z,105.92
2023-03-17T15:20:35.559Z,105.35
2023-03-17T15:21:35.537Z,103.37
2023-03-17T15:22:35.547Z,100.89
2023-03-17T15:23:35.507Z,98.29
2023-03-17T15:24:35.470Z,98.48
2023-03-17T15:25:35.506Z,99.04
2023-03-17T15:26:35.465Z,99.12
2023-03-17T15:27:35.437Z,99.24
2023-03-17T15:28:35.445Z,101.93
2023-03-17T15:29:35.411Z,99.87
2023-03-17T15:30:46.552Z,98.33
2023-03-17T15:31:36.610Z,98.40
2023-03-17T15:32:35.417Z,98.71
2023-03-17T15:33:35.380Z,98.17
2023-03-17T15:34:35.344Z,97.31
2023-03-17T15:35:35.391Z,99.26
2023-03-17T15:36:35.387Z,98.16
2023-03-17T15:37:35.302Z,96.72
2023-03-17T15:38:35.280Z,95.49
2023-03-17T15:39:35.278Z,95.38
2023-03-17T15:40:35.255Z,95.92
2023-03-17T15:41:35.284Z,95.79
2023-03-17T15:42:35.241Z,91.41
2023-03-17T15:43:35.272Z,92.77
2023-03-17T15:44:35.211Z,91.21
2023-03-17T15:45:35.191Z,92.17
2023-03-17T15:46:35.275Z,90.84
2023-03-17T15:47:35.241Z,89.09
2023-03-17T15:48:35.198Z,89.11
2023-03-17T15:49:35.134Z,87.67
2023-03-17T15:50:35.140Z,88.21
2023-03-17T15:51:35.154Z,87.39
2023-03-17T15:52:35.130Z,87.68
2023-03-17T15:53:35.064Z,86.69
2023-03-17T15:54:35.075Z,85.51
2023-03-17T15:55:35.084Z,86.23
2023-03-17T15:56:35.058Z,84.77
2023-03-17T15:57:35.023Z,85.09
2023-03-17T15:58:35.006Z,83.98
2023-03-17T15:59:34.995Z,81.85
2023-03-17T16:00:34.987Z,81.42
2023-03-17T16:01:35.012Z,82.55
2023-03-17T16:02:34.932Z,80.88
2023-03-17T16:03:34.927Z,83.02
2023-03-17T16:04:34.968Z,80.55
2023-03-17T16:05:34.901Z,82.51
2023-03-17T16:06:34.887Z,82.31
2023-03-17T16:07:34.868Z,80.01
2023-03-17T16:08:34.850Z,80.11
2023-03-17T16:09:34.868Z,80.67
2023-03-17T16:10:34.854Z,80.79
2023-03-17T16:11:34.905Z,79.86
2023-03-17T16:12:34.811Z,78.56
2023-03-17T16:13:34.874Z,77.88
2023-03-17T16:14:34.813Z,77.63
2023-03-17T16:15:34.850Z,77.12
2023-03-17T16:16:34.862Z,76.80
2023-03-17T16:17:34.813Z,76.84
2023-03-17T16:18:34.810Z,76.94
2023-03-17T16:19:34.816Z,77.22
2023-03-17T16:20:34.818Z,75.95
2023-03-17T16:21:34.829Z,74.81
2023-03-17T16:22:34.857Z,75.94
2023-03-17T16:23:36.962Z,75.04
2023-03-17T16:24:34.895Z,75.59
2023-03-17T16:25:34.895Z,74.69
2023-03-17T16:26:34.919Z,74.73
2023-03-17T16:27:34.986Z,73.84
2023-03-17T16:28:34.932Z,74.36
2023-03-17T16:29:34.942Z,72.54
2023-03-17T16:30:34.941Z,72.94
2023-03-17T16:31:35.033Z,72.46
2023-03-17T16:32:35.067Z,72.06
2023-03-17T16:33:35.121Z,70.93
2023-03-17T16:34:35.152Z,70.04
2023-03-17T16:35:35.254Z,69.69
2023-03-17T16:36:35.286Z,69.56
2023-03-17T16:37:35.364Z,70.47
2023-03-17T16:38:35.466Z,69.43
2023-03-17T16:39:35.462Z,67.67
2023-03-17T16:40:35.560Z,67.47
2023-03-17T16:41:35.641Z,67.82
2023-03-17T16:42:35.674Z,68.10
2023-03-17T16:43:35.683Z,68.11
2023-03-17T16:44:35.779Z,68.20
2023-03-17T16:45:35.678Z,67.15
2023-03-17T16:46:35.929Z,66.58
2023-03-17T16:47:35.713Z,67.30
2023-03-17T16:48:35.717Z,66.61
2023-03-17T16:49:35.715Z,66.69
2023-03-17T16:50:35.718Z,66.62
2023-03-17T16:51:35.719Z,66.79
2023-03-17T16:52:35.755Z,66.24
2023-03-17T16:53:35.758Z,65.81
2023-03-17T16:54:35.764Z,66.01
2023-03-17T16:55:35.764Z,65.68
2023-03-17T16:56:35.808Z,65.40
2023-03-17T16:57:35.793Z,65.82
2023-03-17T16:58:35.818Z,64.62
2023-03-17T16:59:35.801Z,62.90
2023-03-17T17:00:35.805Z,62.62
2023-03-17T17:01:35.839Z,63.74
2023-03-17T17:02:35.876Z,63.35
2023-03-17T17:03:35.845Z,63.41
2023-03-17T17:04:35.848Z,63.53
2023-03-17T17:05:35.862Z,62.70